sensor_id;sensor_type;location;lat;lon;timestamp;pressure;altitude;pressure_sealevel;temperature;humidity
17635;BME280;8936;49.010;12.120;2023-01-15T00:01:00;97035.97;;;6.61;100.00
17635;BME280;8936;49.010;12.120;2023-01-15T00:03:27;97030.09;;;6.53;100.00
17635;BME280;8936;49.010;12.120;2023-01-15T00:05:54;97018.16;;;6.51;100.00
17635;BME280;8936;49.010;12.120;2023-01-15T00:08:20;97021.34;;;6.53;100.00
17635;BME280;8936;49.010;12.120;2023-01-15T00:10:46;97023.22;;;6.53;100.00
17635;BME280;8936;49.010;12.120;2023-01-15T00:13:13;97025.59;;;6.54;100.00
17635;BME280;8936;49.010;12.120;2023-01-15T00:15:39;97015.50;;;6.51;100.00
17635;BME280;8936;49.010;12.120;2023-01-15T00:18:07;97019.47;;;6.48;100.00
17635;BME280;8936;49.010;12.120;2023-01-15T00:20:34;97022.47;;;6.62;100.00
17635;BME280;8936;49.010;12.120;2023-01-15T00:23:00;97019.28;;;6.70;100.00
17635;BME280;8936;49.010;12.120;2023-01-15T00:25:26;97019.53;;;6.69;100.00
17635;BME280;8936;49.010;12.120;2023-01-15T00:28:11;97014.75;;;6.61;100.00
17635;BME280;8936;49.010;12.120;2023-01-15T00:30:38;97009.16;;;6.57;100.00
17635;BME280;8936;49.010;12.120;2023-01-15T00:33:05;97006.78;;;6.56;100.00
17635;BME280;8936;49.010;12.120;2023-01-15T00:35:33;97003.31;;;6.55;100.00
17635;BME280;8936;49.010;12.120;2023-01-15T00:37:59;97004.13;;;6.61;100.00
17635;BME280;8936;49.010;12.120;2023-01-15T00:40:26;97001.25;;;6.62;100.00
17635;BME280;8936;49.010;12.120;2023-01-15T00:42:52;97000.97;;;6.64;100.00
17635;BME280;8936;49.010;12.120;2023-01-15T00:45:18;96999.34;;;6.63;100.00
17635;BME280;8936;49.010;12.120;2023-01-15T00:47:45;97000.16;;;6.63;100.00
17635;BME280;8936;49.010;12.120;2023-01-15T00:50:13;96990.34;;;6.64;100.00
17635;BME280;8936;49.010;12.120;2023-01-15T00:52:41;96998.59;;;6.67;100.00
17635;BME280;8936;49.010;12.120;2023-01-15T00:55:07;96988.78;;;6.73;100.00
17635;BME280;8936;49.010;12.120;2023-01-15T00:57:34;96990.13;;;6.75;100.00
17635;BME280;8936;49.010;12.120;2023-01-15T01:00:00;96986.94;;;6.78;100.00
17635;BME280;8936;49.010;12.120;2023-01-15T01:02:28;96990.41;;;6.79;100.00
17635;BME280;8936;49.010;12.120;2023-01-15T01:04:54;96985.91;;;6.79;100.00
17635;BME280;8936;49.010;12.120;2023-01-15T01:07:20;96987.22;;;6.77;100.00
17635;BME280;8936;49.010;12.120;2023-01-15T01:09:48;96983.78;;;6.81;100.00
17635;BME280;8936;49.010;12.120;2023-01-15T01:12:15;96990.97;;;6.86;100.00
17635;BME280;8936;49.010;12.120;2023-01-15T01:14:41;96985.63;;;6.81;100.00
17635;BME280;8936;49.010;12.120;2023-01-15T01:17:08;96982.97;;;6.81;100.00
17635;BME280;8936;49.010;12.120;2023-01-15T01:19:35;96988.78;;;6.78;100.00
17635;BME280;8936;49.010;12.120;2023-01-15T01:22:01;96977.13;;;6.79;100.00
17635;BME280;8936;49.010;12.120;2023-01-15T01:24:28;96977.66;;;6.76;100.00
17635;BME280;8936;49.010;12.120;2023-01-15T01:26:55;96972.88;;;6.78;100.00
17635;BME280;8936;49.010;12.120;2023-01-15T01:29:22;96965.44;;;6.75;100.00
17635;BME280;8936;49.010;12.120;2023-01-15T01:31:48;96969.69;;;6.81;100.00
17635;BME280;8936;49.010;12.120;2023-01-15T01:34:15;96963.63;;;6.80;100.00
17635;BME280;8936;49.010;12.120;2023-01-15T01:36:42;96968.41;;;6.88;100.00
17635;BME280;8936;49.010;12.120;2023-01-15T01:39:11;96957.25;;;6.91;100.00
17635;BME280;8936;49.010;12.120;2023-01-15T01:41:38;96957.00;;;6.88;100.00
17635;BME280;8936;49.010;12.120;2023-01-15T01:44:07;96960.44;;;6.83;100.00
17635;BME280;8936;49.010;12.120;2023-01-15T01:46:34;96953.00;;;6.80;100.00
17635;BME280;8936;49.010;12.120;2023-01-15T01:49:01;96955.91;;;6.74;100.00
17635;BME280;8936;49.010;12.120;2023-01-15T01:51:31;96948.72;;;6.69;100.00
17635;BME280;8936;49.010;12.120;2023-01-15T01:54:00;96948.47;;;6.71;100.00
17635;BME280;8936;49.010;12.120;2023-01-15T01:56:27;96954.81;;;6.70;100.00
17635;BME280;8936;49.010;12.120;2023-01-15T01:58:54;96942.06;;;6.67;100.00
17635;BME280;8936;49.010;12.120;2023-01-15T02:01:23;96941.56;;;6.65;100.00
17635;BME280;8936;49.010;12.120;2023-01-15T02:03:50;96928.81;;;6.67;100.00
17635;BME280;8936;49.010;12.120;2023-01-15T02:06:17;96934.41;;;6.65;100.00
17635;BME280;8936;49.010;12.120;2023-01-15T02:08:43;96933.03;;;6.63;100.00
17635;BME280;8936;49.010;12.120;2023-01-15T02:11:11;96936.25;;;6.65;100.00
17635;BME280;8936;49.010;12.120;2023-01-15T02:13:39;96935.97;;;6.66;100.00
17635;BME280;8936;49.010;12.120;2023-01-15T02:16:07;96922.44;;;6.63;100.00
17635;BME280;8936;49.010;12.120;2023-01-15T02:18:42;96915.81;;;6.70;100.00
17635;BME280;8936;49.010;12.120;2023-01-15T02:21:10;96921.94;;;6.76;100.00
17635;BME280;8936;49.010;12.120;2023-01-15T02:23:49;96922.22;;;6.79;100.00
17635;BME280;8936;49.010;12.120;2023-01-15T02:26:45;96903.84;;;6.63;100.00
17635;BME280;8936;49.010;12.120;2023-01-15T02:29:17;96902.28;;;6.67;100.00
17635;BME280;8936;49.010;12.120;2023-01-15T02:31:46;96902.81;;;6.59;100.00
17635;BME280;8936;49.010;12.120;2023-01-15T02:34:15;96895.38;;;6.61;100.00
17635;BME280;8936;49.010;12.120;2023-01-15T02:36:45;96896.69;;;6.63;100.00
17635;BME280;8936;49.010;12.120;2023-01-15T02:39:14;96885.84;;;6.70;100.00
17635;BME280;8936;49.010;12.120;2023-01-15T02:41:42;96894.91;;;7.09;100.00
17635;BME280;8936;49.010;12.120;2023-01-15T02:44:11;96882.69;;;6.88;100.00
17635;BME280;8936;49.010;12.120;2023-01-15T02:46:39;96885.38;;;7.08;100.00
17635;BME280;8936;49.010;12.120;2023-01-15T02:49:07;96884.28;;;7.19;100.00
17635;BME280;8936;49.010;12.120;2023-01-15T02:51:35;96881.63;;;7.04;100.00
17635;BME280;8936;49.010;12.120;2023-01-15T02:54:04;96879.75;;;6.84;100.00
17635;BME280;8936;49.010;12.120;2023-01-15T02:56:32;96874.72;;;6.83;100.00
17635;BME280;8936;49.010;12.120;2023-01-15T02:59:01;96866.75;;;6.73;100.00
17635;BME280;8936;49.010;12.120;2023-01-15T03:01:31;96878.97;;;6.79;100.00
17635;BME280;8936;49.010;12.120;2023-01-15T03:04:00;96867.03;;;6.76;100.00
17635;BME280;8936;49.010;12.120;2023-01-15T03:06:31;96865.19;;;6.87;100.00
17635;BME280;8936;49.010;12.120;2023-01-15T03:09:00;96857.50;;;7.05;100.00
17635;BME280;8936;49.010;12.120;2023-01-15T03:11:27;96847.91;;;6.94;100.00
17635;BME280;8936;49.010;12.120;2023-01-15T03:13:55;96854.28;;;6.83;100.00
17635;BME280;8936;49.010;12.120;2023-01-15T03:16:25;96838.63;;;6.77;100.00
17635;BME280;8936;49.010;12.120;2023-01-15T03:19:02;96843.16;;;6.71;100.00
17635;BME280;8936;49.010;12.120;2023-01-15T03:21:32;96825.88;;;6.59;100.00
17635;BME280;8936;49.010;12.120;2023-01-15T03:24:01;96829.06;;;6.71;100.00
17635;BME280;8936;49.010;12.120;2023-01-15T03:26:29;96836.50;;;6.64;100.00
17635;BME280;8936;49.010;12.120;2023-01-15T03:28:56;96834.09;;;6.57;100.00
17635;BME280;8936;49.010;12.120;2023-01-15T03:31:23;96830.66;;;6.97;100.00
17635;BME280;8936;49.010;12.120;2023-01-15T03:33:49;96829.06;;;6.71;100.00
17635;BME280;8936;49.010;12.120;2023-01-15T03:36:17;96826.69;;;6.64;100.00
17635;BME280;8936;49.010;12.120;2023-01-15T03:38:44;96831.19;;;6.74;100.00
17635;BME280;8936;49.010;12.120;2023-01-15T03:41:16;96822.44;;;6.78;100.00
17635;BME280;8936;49.010;12.120;2023-01-15T03:43:47;96820.03;;;6.67;100.00
17635;BME280;8936;49.010;12.120;2023-01-15T03:46:25;96817.94;;;6.59;100.00
17635;BME280;8936;49.010;12.120;2023-01-15T03:48:58;96824.28;;;6.53;100.00
17635;BME280;8936;49.010;12.120;2023-01-15T03:51:30;96817.91;;;6.53;100.00
17635;BME280;8936;49.010;12.120;2023-01-15T03:53:59;96820.31;;;6.55;100.00
17635;BME280;8936;49.010;12.120;2023-01-15T03:56:30;96818.44;;;6.45;100.00
17635;BME280;8936;49.010;12.120;2023-01-15T03:58:58;96807.81;;;6.50;100.00
17635;BME280;8936;49.010;12.120;2023-01-15T04:01:26;96817.91;;;6.48;100.00
17635;BME280;8936;49.010;12.120;2023-01-15T04:03:56;96800.16;;;6.49;100.00
17635;BME280;8936;49.010;12.120;2023-01-15T04:06:23;96808.09;;;6.54;100.00
17635;BME280;8936;49.010;12.120;2023-01-15T04:08:53;96794.56;;;6.45;100.00
17635;BME280;8936;49.010;12.120;2023-01-15T04:11:21;96802.00;;;6.43;100.00
17635;BME280;8936;49.010;12.120;2023-01-15T04:13:48;96799.59;;;6.42;100.00
17635;BME280;8936;49.010;12.120;2023-01-15T04:16:22;96801.47;;;6.51;100.00
17635;BME280;8936;49.010;12.120;2023-01-15T04:18:49;96805.69;;;6.42;100.00
17635;BME280;8936;49.010;12.120;2023-01-15T04:21:15;96800.94;;;6.34;100.00
17635;BME280;8936;49.010;12.120;2023-01-15T04:23:42;96798.78;;;6.26;100.00
17635;BME280;8936;49.010;12.120;2023-01-15T04:26:10;96797.72;;;6.32;100.00
17635;BME280;8936;49.010;12.120;2023-01-15T04:28:36;96807.84;;;6.71;100.00
17635;BME280;8936;49.010;12.120;2023-01-15T04:31:02;96794.03;;;6.33;100.00
17635;BME280;8936;49.010;12.120;2023-01-15T04:33:31;96796.91;;;6.32;100.00
17635;BME280;8936;49.010;12.120;2023-01-15T04:35:58;96795.31;;;6.26;100.00
17635;BME280;8936;49.010;12.120;2023-01-15T04:38:24;96799.06;;;6.25;100.00
17635;BME280;8936;49.010;12.120;2023-01-15T04:40:50;96794.28;;;6.42;100.00
17635;BME280;8936;49.010;12.120;2023-01-15T04:43:36;96787.88;;;6.23;100.00
17635;BME280;8936;49.010;12.120;2023-01-15T04:46:20;96786.28;;;6.17;100.00
17635;BME280;8936;49.010;12.120;2023-01-15T04:48:47;96784.97;;;6.19;100.00
17635;BME280;8936;49.010;12.120;2023-01-15T04:51:13;96784.16;;;6.14;100.00
17635;BME280;8936;49.010;12.120;2023-01-15T04:53:39;96779.66;;;6.09;100.00
17635;BME280;8936;49.010;12.120;2023-01-15T04:56:06;96790.25;;;6.09;100.00
17635;BME280;8936;49.010;12.120;2023-01-15T04:58:33;96787.09;;;6.17;100.00
17635;BME280;8936;49.010;12.120;2023-01-15T05:01:01;96782.56;;;6.08;100.00
17635;BME280;8936;49.010;12.120;2023-01-15T05:03:29;96773.81;;;6.07;100.00
17635;BME280;8936;49.010;12.120;2023-01-15T05:05:59;96780.44;;;6.10;100.00
17635;BME280;8936;49.010;12.120;2023-01-15T05:08:26;96787.63;;;6.09;100.00
17635;BME280;8936;49.010;12.120;2023-01-15T05:10:52;96778.84;;;6.09;100.00
17635;BME280;8936;49.010;12.120;2023-01-15T05:13:19;96769.59;;;6.11;100.00
17635;BME280;8936;49.010;12.120;2023-01-15T05:15:45;96765.59;;;6.09;100.00
17635;BME280;8936;49.010;12.120;2023-01-15T05:18:16;96764.03;;;6.18;100.00
17635;BME280;8936;49.010;12.120;2023-01-15T05:20:42;96760.59;;;6.22;100.00
17635;BME280;8936;49.010;12.120;2023-01-15T05:23:09;96759.53;;;6.18;100.00
17635;BME280;8936;49.010;12.120;2023-01-15T05:25:35;96750.78;;;6.18;100.00
17635;BME280;8936;49.010;12.120;2023-01-15T05:28:01;96749.97;;;6.17;100.00
17635;BME280;8936;49.010;12.120;2023-01-15T05:30:28;96747.88;;;6.24;100.00
17635;BME280;8936;49.010;12.120;2023-01-15T05:32:54;96742.56;;;6.19;100.00
17635;BME280;8936;49.010;12.120;2023-01-15T05:35:22;96736.22;;;6.15;100.00
17635;BME280;8936;49.010;12.120;2023-01-15T05:37:48;96721.88;;;6.16;100.00
17635;BME280;8936;49.010;12.120;2023-01-15T05:40:15;96727.44;;;6.05;100.00
17635;BME280;8936;49.010;12.120;2023-01-15T05:42:41;96721.56;;;5.97;100.00
17635;BME280;8936;49.010;12.120;2023-01-15T05:45:08;96726.66;;;6.09;100.00
17635;BME280;8936;49.010;12.120;2023-01-15T05:47:34;96718.69;;;6.04;100.00
17635;BME280;8936;49.010;12.120;2023-01-15T05:50:01;96707.03;;;6.00;100.00
17635;BME280;8936;49.010;12.120;2023-01-15T05:52:29;96696.94;;;6.02;100.00
17635;BME280;8936;49.010;12.120;2023-01-15T05:54:55;96700.91;;;6.10;100.00
17635;BME280;8936;49.010;12.120;2023-01-15T05:57:21;96704.41;;;6.35;100.00
17635;BME280;8936;49.010;12.120;2023-01-15T05:59:48;96700.16;;;6.55;100.00
17635;BME280;8936;49.010;12.120;2023-01-15T06:02:14;96702.28;;;6.58;100.00
17635;BME280;8936;49.010;12.120;2023-01-15T06:04:41;96699.66;;;6.37;100.00
17635;BME280;8936;49.010;12.120;2023-01-15T06:07:07;96695.13;;;6.23;100.00
17635;BME280;8936;49.010;12.120;2023-01-15T06:09:35;96690.59;;;6.13;100.00
17635;BME280;8936;49.010;12.120;2023-01-15T06:12:01;96695.13;;;6.13;100.00
17635;BME280;8936;49.010;12.120;2023-01-15T06:14:27;96702.00;;;6.29;100.00
17635;BME280;8936;49.010;12.120;2023-01-15T06:16:54;96704.94;;;6.32;100.00
17635;BME280;8936;49.010;12.120;2023-01-15T06:19:20;96704.41;;;6.15;100.00
17635;BME280;8936;49.010;12.120;2023-01-15T06:21:46;96704.16;;;6.22;100.00
17635;BME280;8936;49.010;12.120;2023-01-15T06:24:13;96707.06;;;6.15;100.00
17635;BME280;8936;49.010;12.120;2023-01-15T06:26:42;96712.34;;;6.15;100.00
17635;BME280;8936;49.010;12.120;2023-01-15T06:29:08;96705.97;;;6.11;100.00
17635;BME280;8936;49.010;12.120;2023-01-15T06:31:34;96696.19;;;6.22;100.00
17635;BME280;8936;49.010;12.120;2023-01-15T06:34:01;96693.25;;;6.08;100.00
17635;BME280;8936;49.010;12.120;2023-01-15T06:36:27;96689.81;;;6.18;100.00
17635;BME280;8936;49.010;12.120;2023-01-15T06:38:54;96694.06;;;6.24;100.00
17635;BME280;8936;49.010;12.120;2023-01-15T06:41:21;96691.94;;;6.21;100.00
17635;BME280;8936;49.010;12.120;2023-01-15T06:44:08;96671.78;;;6.15;100.00
17635;BME280;8936;49.010;12.120;2023-01-15T06:46:53;96674.16;;;6.26;100.00
17635;BME280;8936;49.010;12.120;2023-01-15T06:49:37;96680.00;;;6.23;100.00
17635;BME280;8936;49.010;12.120;2023-01-15T06:52:04;96674.69;;;6.23;100.00
17635;BME280;8936;49.010;12.120;2023-01-15T06:54:30;96674.69;;;6.28;100.00
17635;BME280;8936;49.010;12.120;2023-01-15T06:56:57;96672.59;;;6.45;100.00
17635;BME280;8936;49.010;12.120;2023-01-15T06:59:27;96663.56;;;6.31;100.00
17635;BME280;8936;49.010;12.120;2023-01-15T07:01:54;96670.72;;;6.36;100.00
17635;BME280;8936;49.010;12.120;2023-01-15T07:04:20;96657.72;;;6.49;100.00
17635;BME280;8936;49.010;12.120;2023-01-15T07:06:46;96652.97;;;6.36;100.00
17635;BME280;8936;49.010;12.120;2023-01-15T07:09:13;96645.53;;;6.38;100.00
17635;BME280;8936;49.010;12.120;2023-01-15T07:11:39;96645.53;;;6.28;100.00
17635;BME280;8936;49.010;12.120;2023-01-15T07:14:13;96649.53;;;6.21;100.00
17635;BME280;8936;49.010;12.120;2023-01-15T07:16:41;96633.59;;;6.26;100.00
17635;BME280;8936;49.010;12.120;2023-01-15T07:19:08;96630.44;;;6.34;100.00
17635;BME280;8936;49.010;12.120;2023-01-15T07:21:34;96629.38;;;6.20;100.00
17635;BME280;8936;49.010;12.120;2023-01-15T07:24:01;96636.53;;;6.19;100.00
17635;BME280;8936;49.010;12.120;2023-01-15T07:26:27;96634.69;;;6.20;100.00
17635;BME280;8936;49.010;12.120;2023-01-15T07:28:53;96638.63;;;6.22;100.00
17635;BME280;8936;49.010;12.120;2023-01-15T07:31:20;96630.16;;;6.20;100.00
17635;BME280;8936;49.010;12.120;2023-01-15T07:33:48;96633.09;;;6.34;100.00
17635;BME280;8936;49.010;12.120;2023-01-15T07:36:14;96626.44;;;6.36;100.00
17635;BME280;8936;49.010;12.120;2023-01-15T07:38:41;96624.88;;;6.30;100.00
17635;BME280;8936;49.010;12.120;2023-01-15T07:41:07;96625.66;;;6.31;100.00
17635;BME280;8936;49.010;12.120;2023-01-15T07:43:51;96619.56;;;6.30;100.00
17635;BME280;8936;49.010;12.120;2023-01-15T07:46:35;96613.47;;;6.30;100.00
17635;BME280;8936;49.010;12.120;2023-01-15T07:49:26;96616.38;;;6.23;100.00
17635;BME280;8936;49.010;12.120;2023-01-15T07:52:12;96624.88;;;6.30;100.00
17635;BME280;8936;49.010;12.120;2023-01-15T07:54:38;96615.84;;;6.26;100.00
17635;BME280;8936;49.010;12.120;2023-01-15T07:57:05;96610.84;;;6.25;100.00
17635;BME280;8936;49.010;12.120;2023-01-15T07:59:31;96616.38;;;6.43;100.00
17635;BME280;8936;49.010;12.120;2023-01-15T08:01:58;96613.19;;;6.41;100.00
17635;BME280;8936;49.010;12.120;2023-01-15T08:04:26;96610.00;;;6.39;100.00
17635;BME280;8936;49.010;12.120;2023-01-15T08:06:52;96603.09;;;6.38;100.00
17635;BME280;8936;49.010;12.120;2023-01-15T08:09:19;96610.00;;;6.44;100.00
17635;BME280;8936;49.010;12.120;2023-01-15T08:11:45;96615.56;;;6.43;100.00
17635;BME280;8936;49.010;12.120;2023-01-15T08:14:29;96608.66;;;6.52;100.00
17635;BME280;8936;49.010;12.120;2023-01-15T08:17:13;96613.16;;;6.57;100.00
17635;BME280;8936;49.010;12.120;2023-01-15T08:19:41;96616.31;;;6.64;100.00
17635;BME280;8936;49.010;12.120;2023-01-15T08:22:08;96622.13;;;6.76;100.00
17635;BME280;8936;49.010;12.120;2023-01-15T08:24:35;96623.19;;;6.70;100.00
17635;BME280;8936;49.010;12.120;2023-01-15T08:27:01;96608.31;;;6.79;100.00
17635;BME280;8936;49.010;12.120;2023-01-15T08:29:28;96609.38;;;6.78;100.00
17635;BME280;8936;49.010;12.120;2023-01-15T08:31:54;96610.47;;;6.77;100.00
17635;BME280;8936;49.010;12.120;2023-01-15T08:34:21;96614.44;;;6.79;100.00
17635;BME280;8936;49.010;12.120;2023-01-15T08:36:49;96609.38;;;6.83;100.00
17635;BME280;8936;49.010;12.120;2023-01-15T08:39:21;96610.91;;;6.94;100.00
17635;BME280;8936;49.010;12.120;2023-01-15T08:41:47;96618.34;;;6.97;100.00
17635;BME280;8936;49.010;12.120;2023-01-15T08:44:14;96618.63;;;6.90;100.00
17635;BME280;8936;49.010;12.120;2023-01-15T08:46:41;96610.91;;;6.99;100.00
17635;BME280;8936;49.010;12.120;2023-01-15T08:49:07;96614.59;;;7.03;100.00
17635;BME280;8936;49.010;12.120;2023-01-15T08:51:34;96603.69;;;7.15;100.00
17635;BME280;8936;49.010;12.120;2023-01-15T08:54:01;96607.84;;;7.31;100.00
17635;BME280;8936;49.010;12.120;2023-01-15T08:56:28;96604.16;;;7.27;100.00
17635;BME280;8936;49.010;12.120;2023-01-15T08:58:54;96610.50;;;7.31;100.00
17635;BME280;8936;49.010;12.120;2023-01-15T09:01:21;96614.72;;;7.37;100.00
17635;BME280;8936;49.010;12.120;2023-01-15T09:03:47;96614.41;;;7.43;100.00
17635;BME280;8936;49.010;12.120;2023-01-15T09:06:14;96615.72;;;7.51;100.00
17635;BME280;8936;49.010;12.120;2023-01-15T09:08:40;96617.53;;;7.60;100.00
17635;BME280;8936;49.010;12.120;2023-01-15T09:11:08;96618.03;;;7.63;100.00
17635;BME280;8936;49.010;12.120;2023-01-15T09:13:37;96612.16;;;7.66;100.00
17635;BME280;8936;49.010;12.120;2023-01-15T09:16:03;96611.84;;;7.72;100.00
17635;BME280;8936;49.010;12.120;2023-01-15T09:18:31;96609.41;;;7.81;100.00
17635;BME280;8936;49.010;12.120;2023-01-15T09:20:57;96607.84;;;7.75;100.00
17635;BME280;8936;49.010;12.120;2023-01-15T09:23:24;96614.34;;;7.97;100.00
17635;BME280;8936;49.010;12.120;2023-01-15T09:25:51;96620.34;;;8.13;100.00
17635;BME280;8936;49.010;12.120;2023-01-15T09:28:18;96634.78;;;8.36;100.00
17635;BME280;8936;49.010;12.120;2023-01-15T09:30:45;96658.31;;;8.52;100.00
17635;BME280;8936;49.010;12.120;2023-01-15T09:33:12;96664.13;;;8.26;100.00
17635;BME280;8936;49.010;12.120;2023-01-15T09:35:38;96666.13;;;8.44;100.00
17635;BME280;8936;49.010;12.120;2023-01-15T09:38:05;96664.34;;;8.34;100.00
17635;BME280;8936;49.010;12.120;2023-01-15T09:40:35;96670.50;;;8.25;100.00
17635;BME280;8936;49.010;12.120;2023-01-15T09:43:07;96681.34;;;8.33;100.00
17635;BME280;8936;49.010;12.120;2023-01-15T09:45:41;96673.44;;;8.23;100.00
17635;BME280;8936;49.010;12.120;2023-01-15T09:48:17;96673.31;;;8.43;100.00
17635;BME280;8936;49.010;12.120;2023-01-15T09:50:52;96680.16;;;8.49;100.00
17635;BME280;8936;49.010;12.120;2023-01-15T09:53:35;96691.03;;;8.53;100.00
17635;BME280;8936;49.010;12.120;2023-01-15T09:56:03;96689.38;;;8.62;100.00
17635;BME280;8936;49.010;12.120;2023-01-15T09:58:31;96698.41;;;8.27;100.00
17635;BME280;8936;49.010;12.120;2023-01-15T10:01:00;96707.47;;;8.26;100.00
17635;BME280;8936;49.010;12.120;2023-01-15T10:03:28;96703.28;;;8.54;100.00
17635;BME280;8936;49.010;12.120;2023-01-15T10:06:00;96716.53;;;8.59;100.00
17635;BME280;8936;49.010;12.120;2023-01-15T10:08:31;96721.13;;;8.48;100.00
17635;BME280;8936;49.010;12.120;2023-01-15T10:11:00;96733.44;;;8.44;100.00
17635;BME280;8936;49.010;12.120;2023-01-15T10:13:30;96738.75;;;8.39;100.00
17635;BME280;8936;49.010;12.120;2023-01-15T10:16:02;96747.00;;;8.43;100.00
17635;BME280;8936;49.010;12.120;2023-01-15T10:18:28;96737.19;;;8.38;100.00
17635;BME280;8936;49.010;12.120;2023-01-15T10:21:01;96754.28;;;8.22;100.00
17635;BME280;8936;49.010;12.120;2023-01-15T10:23:36;96764.38;;;8.25;100.00
17635;BME280;8936;49.010;12.120;2023-01-15T10:26:07;96768.63;;;8.31;100.00
17635;BME280;8936;49.010;12.120;2023-01-15T10:28:44;96777.16;;;8.23;100.00
17635;BME280;8936;49.010;12.120;2023-01-15T10:31:18;96787.25;;;8.26;100.00
17635;BME280;8936;49.010;12.120;2023-01-15T10:33:51;96792.31;;;8.18;100.00
17635;BME280;8936;49.010;12.120;2023-01-15T10:36:23;96813.84;;;8.21;100.00
17635;BME280;8936;49.010;12.120;2023-01-15T10:38:55;96805.91;;;8.16;100.00
17635;BME280;8936;49.010;12.120;2023-01-15T10:41:41;96810.94;;;8.18;100.00
17635;BME280;8936;49.010;12.120;2023-01-15T10:44:13;96812.00;;;8.22;100.00
17635;BME280;8936;49.010;12.120;2023-01-15T10:46:43;96808.53;;;8.26;100.00
17635;BME280;8936;49.010;12.120;2023-01-15T10:49:11;96806.41;;;8.23;100.00
17635;BME280;8936;49.010;12.120;2023-01-15T10:51:40;96825.03;;;8.23;100.00
17635;BME280;8936;49.010;12.120;2023-01-15T10:54:11;96832.47;;;8.21;100.00
17635;BME280;8936;49.010;12.120;2023-01-15T10:56:40;96842.06;;;8.17;100.00
17635;BME280;8936;49.010;12.120;2023-01-15T10:59:10;96850.03;;;8.22;100.00
17635;BME280;8936;49.010;12.120;2023-01-15T11:01:40;96830.66;;;8.17;100.00
17635;BME280;8936;49.010;12.120;2023-01-15T11:04:08;96839.38;;;8.32;100.00
17635;BME280;8936;49.010;12.120;2023-01-15T11:06:37;96850.81;;;8.28;100.00
17635;BME280;8936;49.010;12.120;2023-01-15T11:09:04;96851.59;;;8.33;100.00
17635;BME280;8936;49.010;12.120;2023-01-15T11:11:32;96851.59;;;8.38;100.00
17635;BME280;8936;49.010;12.120;2023-01-15T11:14:18;96846.28;;;8.33;100.00
17635;BME280;8936;49.010;12.120;2023-01-15T11:17:02;96848.66;;;8.35;100.00
17635;BME280;8936;49.010;12.120;2023-01-15T11:19:50;96847.34;;;8.27;100.00
17635;BME280;8936;49.010;12.120;2023-01-15T11:22:18;96844.41;;;8.24;100.00
17635;BME280;8936;49.010;12.120;2023-01-15T11:27:28;96844.72;;;8.22;100.00
17635;BME280;8936;49.010;12.120;2023-01-15T11:29:57;96849.47;;;8.25;100.00
17635;BME280;8936;49.010;12.120;2023-01-15T11:32:27;96858.81;;;8.28;100.00
17635;BME280;8936;49.010;12.120;2023-01-15T11:35:16;96854.00;;;8.30;100.00
17635;BME280;8936;49.010;12.120;2023-01-15T11:37:43;96850.31;;;8.15;100.00
17635;BME280;8936;49.010;12.120;2023-01-15T11:40:14;96871.84;;;8.19;100.00
17635;BME280;8936;49.010;12.120;2023-01-15T11:42:44;96870.25;;;8.28;100.00
17635;BME280;8936;49.010;12.120;2023-01-15T11:45:28;96865.44;;;8.20;100.00
17635;BME280;8936;49.010;12.120;2023-01-15T11:48:13;96869.97;;;8.25;100.00
17635;BME280;8936;49.010;12.120;2023-01-15T11:51:01;96850.03;;;8.17;100.00
17635;BME280;8936;49.010;12.120;2023-01-15T11:53:31;96849.47;;;8.30;100.00
17635;BME280;8936;49.010;12.120;2023-01-15T11:55:59;96850.53;;;8.24;100.00
17635;BME280;8936;49.010;12.120;2023-01-15T11:58:26;96855.31;;;8.27;100.00
17635;BME280;8936;49.010;12.120;2023-01-15T12:00:53;96856.16;;;8.23;100.00
17635;BME280;8936;49.010;12.120;2023-01-15T12:03:21;96863.28;;;8.27;100.00
17635;BME280;8936;49.010;12.120;2023-01-15T12:05:52;96864.38;;;8.26;100.00
17635;BME280;8936;49.010;12.120;2023-01-15T12:08:22;96868.91;;;8.26;100.00
17635;BME280;8936;49.010;12.120;2023-01-15T12:10:55;96870.19;;;8.38;100.00
17635;BME280;8936;49.010;12.120;2023-01-15T12:13:31;96873.09;;;8.42;100.00
17635;BME280;8936;49.010;12.120;2023-01-15T12:16:01;96871.75;;;8.44;100.00
17635;BME280;8936;49.010;12.120;2023-01-15T12:18:39;96888.31;;;8.31;100.00
17635;BME280;8936;49.010;12.120;2023-01-15T12:21:15;96904.53;;;8.30;100.00
17635;BME280;8936;49.010;12.120;2023-01-15T12:23:48;96910.66;;;8.35;100.00
17635;BME280;8936;49.010;12.120;2023-01-15T12:26:21;96925.81;;;8.25;100.00
17635;BME280;8936;49.010;12.120;2023-01-15T12:28:51;96934.59;;;8.25;100.00
17635;BME280;8936;49.010;12.120;2023-01-15T12:31:24;96910.16;;;8.13;100.00
17635;BME280;8936;49.010;12.120;2023-01-15T12:33:52;96923.44;;;8.18;100.00
17635;BME280;8936;49.010;12.120;2023-01-15T12:36:21;96922.91;;;8.21;100.00
17635;BME280;8936;49.010;12.120;2023-01-15T12:38:52;96906.41;;;8.14;100.00
17635;BME280;8936;49.010;12.120;2023-01-15T12:41:22;96917.56;;;8.26;100.00
17635;BME280;8936;49.010;12.120;2023-01-15T12:43:51;96919.19;;;8.17;100.00
17635;BME280;8936;49.010;12.120;2023-01-15T12:46:38;96966.22;;;8.27;100.00
17635;BME280;8936;49.010;12.120;2023-01-15T12:49:08;96997.38;;;8.16;100.00
17635;BME280;8936;49.010;12.120;2023-01-15T12:51:40;96978.47;;;8.18;100.00
17635;BME280;8936;49.010;12.120;2023-01-15T12:54:12;96973.69;;;8.14;100.00
17635;BME280;8936;49.010;12.120;2023-01-15T12:56:43;96975.56;;;8.14;100.00
17635;BME280;8936;49.010;12.120;2023-01-15T12:59:13;96970.78;;;8.11;100.00
17635;BME280;8936;49.010;12.120;2023-01-15T13:01:45;96989.38;;;8.21;100.00
17635;BME280;8936;49.010;12.120;2023-01-15T13:04:15;96979.28;;;8.18;100.00
17635;BME280;8936;49.010;12.120;2023-01-15T13:06:45;96994.97;;;8.14;100.00
17635;BME280;8936;49.010;12.120;2023-01-15T13:09:16;96988.59;;;8.15;100.00
17635;BME280;8936;49.010;12.120;2023-01-15T13:11:44;97009.59;;;8.22;100.00
17635;BME280;8936;49.010;12.120;2023-01-15T13:14:12;97008.25;;;8.25;100.00